Time;durP1;ratioP1;P1;durP2;ratioP2;P2;SDS_P1;SDS_P2;PMS_P1;PMS_P2;Temp;Humidity;BMP_temperature;BMP_pressure;BME280_temperature;BME280_humidity;BME280_pressure;Samples;Min_cycle;Max_cycle;Signal;HPM_P1;HPM_P2
2023/10/27 00:01:49;;;;;;;9.20;5.43;;;12.80;86.00;;;;;;5072814;28;20143;-60
2023/10/27 00:04:14;;;;;;;12.57;5.25;;;12.80;86.10;;;;;;5088520;28;20024;-61
2023/10/27 00:06:40;;;;;;;10.25;5.43;;;12.90;86.10;;;;;;5073950;28;20029;-60
2023/10/27 00:09:06;;;;;;;10.73;6.03;;;12.90;86.10;;;;;;5076254;28;20036;-60
2023/10/27 00:11:31;;;;;;;10.68;6.45;;;12.90;86.20;;;;;;5077329;28;20037;-60
2023/10/27 00:13:57;;;;;;;12.30;5.20;;;12.90;86.20;;;;;;5066246;28;20117;-60
2023/10/27 00:16:23;;;;;;;10.85;5.05;;;12.90;86.10;;;;;;5069186;28;20048;-60
2023/10/27 00:18:49;;;;;;;10.45;5.70;;;12.90;86.20;;;;;;5062042;28;20135;-60
2023/10/27 00:21:14;;;;;;;9.75;5.47;;;12.90;86.10;;;;;;5070580;28;20111;-60
2023/10/27 00:23:40;;;;;;;8.35;5.50;;;12.90;86.10;;;;;;5068613;28;20120;-60
2023/10/27 00:26:06;;;;;;;10.68;5.93;;;12.90;86.10;;;;;;5070085;28;20119;-60
2023/10/27 00:28:31;;;;;;;10.10;5.07;;;12.90;86.10;;;;;;5069791;28;20028;-61
2023/10/27 00:31:02;;;;;;;12.80;6.25;;;13.00;86.10;;;;;;5067837;28;20115;-61
2023/10/27 00:33:27;;;;;;;12.13;5.97;;;13.00;86.10;;;;;;5070598;28;20086;-60
2023/10/27 00:35:54;;;;;;;10.90;6.18;;;13.00;86.10;;;;;;5071874;28;20029;-61
2023/10/27 00:38:20;;;;;;;14.27;7.00;;;13.00;86.10;;;;;;5071029;28;20032;-60
2023/10/27 00:40:46;;;;;;;9.05;5.85;;;13.00;86.10;;;;;;5069318;28;20023;-61
2023/10/27 00:43:18;;;;;;;12.27;6.22;;;13.00;86.20;;;;;;5067166;28;20466;-60
2023/10/27 00:45:46;;;;;;;;;;;13.00;86.20;;;;;;5065099;28;20025;-61
2023/10/27 00:48:12;;;;;;;9.07;5.25;;;13.00;86.30;;;;;;5070923;28;20326;-60
2023/10/27 00:50:38;;;;;;;10.95;6.50;;;12.90;86.20;;;;;;5072705;28;20039;-60
2023/10/27 00:53:04;;;;;;;11.65;5.15;;;13.00;86.20;;;;;;5071972;28;20032;-61
2023/10/27 00:55:30;;;;;;;14.32;7.20;;;13.00;86.50;;;;;;5065628;28;20064;-60
2023/10/27 00:57:57;;;;;;;15.15;8.93;;;12.90;86.20;;;;;;5067588;28;20032;-60
2023/10/27 01:00:23;;;;;;;10.48;6.70;;;13.00;86.30;;;;;;5072397;28;20094;-60
2023/10/27 01:02:49;;;;;;;12.90;6.35;;;12.90;86.30;;;;;;5065796;28;20033;-61
2023/10/27 01:05:15;;;;;;;9.27;5.70;;;13.00;86.40;;;;;;5067926;28;20025;-65
2023/10/27 01:07:41;;;;;;;15.52;7.32;;;13.00;86.40;;;;;;5067745;28;20124;-65
2023/10/27 01:10:07;;;;;;;18.95;7.63;;;13.00;86.40;;;;;;5070895;28;20122;-65
2023/10/27 01:12:33;;;;;;;11.20;6.40;;;13.00;86.40;;;;;;5045370;28;20342;-67
2023/10/27 01:14:59;;;;;;;9.40;6.30;;;13.00;86.50;;;;;;5071149;28;20045;-65
2023/10/27 01:17:25;;;;;;;11.00;6.88;;;13.00;86.40;;;;;;5069822;28;20028;-66
2023/10/27 01:19:50;;;;;;;15.65;6.40;;;13.00;86.50;;;;;;5073050;28;20016;-65
2023/10/27 01:22:16;;;;;;;9.73;6.05;;;13.00;86.50;;;;;;5071028;28;20028;-65
2023/10/27 01:24:42;;;;;;;11.38;6.75;;;13.00;86.50;;;;;;5074583;28;20024;-66
2023/10/27 01:27:08;;;;;;;13.52;7.13;;;13.00;86.40;;;;;;5070762;28;20085;-66
2023/10/27 01:29:34;;;;;;;14.45;7.93;;;13.00;86.50;;;;;;5057182;28;20033;-66
2023/10/27 01:31:59;;;;;;;12.75;7.63;;;13.00;86.50;;;;;;5072616;28;20101;-66
2023/10/27 01:34:25;;;;;;;12.52;7.38;;;13.00;86.50;;;;;;5076882;28;20060;-66
2023/10/27 01:36:51;;;;;;;11.82;6.47;;;13.00;86.50;;;;;;5062484;28;20029;-66
2023/10/27 01:39:17;;;;;;;12.88;6.28;;;13.00;86.50;;;;;;5072256;28;20081;-65
2023/10/27 01:41:43;;;;;;;16.85;9.65;;;13.00;86.50;;;;;;5072353;28;20119;-66
2023/10/27 01:44:08;;;;;;;14.27;7.18;;;13.00;86.50;;;;;;5071299;28;20099;-66
2023/10/27 01:46:34;;;;;;;19.55;8.80;;;13.00;86.50;;;;;;5070921;28;20402;-62
2023/10/27 01:49:00;;;;;;;14.43;7.25;;;13.00;86.50;;;;;;5068273;28;20036;-65
2023/10/27 01:51:25;;;;;;;14.23;7.72;;;13.00;86.60;;;;;;5070838;28;20438;-66
2023/10/27 01:53:51;;;;;;;14.63;7.53;;;13.00;86.60;;;;;;5064746;28;20487;-65
2023/10/27 01:56:17;;;;;;;12.65;6.68;;;13.00;86.60;;;;;;5074260;28;20081;-66
2023/10/27 01:58:45;;;;;;;10.75;6.50;;;13.10;86.60;;;;;;5069863;28;20025;-65
2023/10/27 02:01:14;;;;;;;10.18;6.45;;;13.10;86.60;;;;;;5073378;28;20040;-65
2023/10/27 02:03:40;;;;;;;17.38;8.13;;;13.00;86.60;;;;;;5073060;28;20075;-65
2023/10/27 02:06:06;;;;;;;15.35;7.97;;;13.00;86.60;;;;;;5074658;28;20137;-65
2023/10/27 02:08:31;;;;;;;11.32;7.15;;;13.10;86.70;;;;;;5071240;28;20036;-65
2023/10/27 02:10:57;;;;;;;9.85;5.68;;;13.10;86.70;;;;;;5066244;28;20471;-65
2023/10/27 02:13:22;;;;;;;11.35;6.22;;;13.10;86.60;;;;;;5069246;28;20121;-65
2023/10/27 02:15:48;;;;;;;12.88;7.63;;;13.10;86.60;;;;;;5066650;28;20460;-65
2023/10/27 02:18:14;;;;;;;12.80;7.28;;;13.10;86.60;;;;;;5069321;28;20558;-65
2023/10/27 02:20:39;;;;;;;15.27;7.53;;;13.10;86.60;;;;;;5077060;28;20474;-65
2023/10/27 02:23:05;;;;;;;9.55;7.18;;;13.10;86.60;;;;;;5074593;28;20383;-65
2023/10/27 02:25:31;;;;;;;15.98;7.22;;;13.10;86.70;;;;;;5070189;28;20060;-65
2023/10/27 02:27:56;;;;;;;9.77;5.93;;;13.10;86.70;;;;;;5074912;28;20036;-65
2023/10/27 02:30:22;;;;;;;13.98;8.40;;;13.10;86.80;;;;;;5072201;28;20044;-65
2023/10/27 02:32:48;;;;;;;15.68;7.00;;;13.10;86.80;;;;;;5076186;28;20398;-65
2023/10/27 02:35:13;;;;;;;9.70;6.18;;;13.10;86.80;;;;;;5067172;28;20043;-65
2023/10/27 02:37:39;;;;;;;11.25;5.85;;;13.10;86.80;;;;;;5066244;28;20102;-64
2023/10/27 02:40:06;;;;;;;8.90;6.65;;;13.10;87.40;;;;;;5073180;28;20028;-65
2023/10/27 02:42:31;;;;;;;12.95;6.97;;;13.10;86.80;;;;;;5070229;28;20036;-65
2023/10/27 02:44:57;;;;;;;9.95;6.10;;;13.10;86.80;;;;;;5070163;28;20039;-65
2023/10/27 02:47:23;;;;;;;7.90;5.05;;;13.10;86.80;;;;;;5066846;28;20119;-65
2023/10/27 02:49:48;;;;;;;12.63;6.57;;;13.10;86.90;;;;;;5071760;28;20036;-65
2023/10/27 02:52:14;;;;;;;11.50;5.80;;;13.10;86.80;;;;;;5071760;28;20029;-62
2023/10/27 02:54:40;;;;;;;9.73;6.05;;;13.20;86.90;;;;;;5077350;28;20394;-65
2023/10/27 02:57:05;;;;;;;10.02;5.63;;;13.10;86.80;;;;;;5086941;28;20065;-65
2023/10/27 02:59:31;;;;;;;7.35;4.72;;;13.20;86.90;;;;;;5062953;28;20107;-62
2023/10/27 03:01:58;;;;;;;7.95;5.60;;;13.20;86.90;;;;;;5059343;28;20029;-62
2023/10/27 03:04:26;;;;;;;12.15;6.18;;;13.10;86.90;;;;;;5068781;28;20040;-62
2023/10/27 03:06:51;;;;;;;8.90;5.50;;;13.20;87.00;;;;;;5080901;28;20093;-62
2023/10/27 03:09:17;;;;;;;7.20;4.80;;;13.20;87.00;;;;;;5062945;28;20123;-62
2023/10/27 03:11:43;;;;;;;9.38;6.88;;;13.20;87.00;;;;;;5068976;28;20165;-62
2023/10/27 03:14:08;;;;;;;8.77;4.88;;;13.20;87.00;;;;;;5063072;28;20032;-62
2023/10/27 03:16:35;;;;;;;11.65;6.43;;;13.20;87.00;;;;;;5061045;28;20033;-62
2023/10/27 03:19:00;;;;;;;8.68;5.05;;;13.20;87.00;;;;;;5064171;28;20029;-62
2023/10/27 03:21:26;;;;;;;9.20;4.38;;;13.20;87.00;;;;;;5069405;28;20024;-62
2023/10/27 03:23:52;;;;;;;10.38;5.70;;;13.20;87.00;;;;;;5066481;28;20058;-62
2023/10/27 03:26:17;;;;;;;10.25;5.78;;;13.20;87.00;;;;;;5075255;28;20425;-62
2023/10/27 03:28:43;;;;;;;10.65;6.55;;;13.20;87.00;;;;;;5065994;28;20111;-62
2023/10/27 03:31:12;;;;;;;12.23;5.45;;;13.20;87.00;;;;;;5072154;28;20040;-62
2023/10/27 03:33:38;;;;;;;7.88;4.85;;;13.20;86.90;;;;;;5071009;28;20028;-62
2023/10/27 03:36:04;;;;;;;10.85;5.55;;;13.20;87.00;;;;;;5070329;28;20039;-64
2023/10/27 03:38:30;;;;;;;12.93;5.35;;;13.20;87.00;;;;;;5067809;28;20028;-65
2023/10/27 03:40:56;;;;;;;8.20;5.10;;;13.20;87.10;;;;;;5068863;28;20017;-64
2023/10/27 03:43:21;;;;;;;9.00;4.88;;;13.20;87.10;;;;;;5068643;28;20035;-65
2023/10/27 03:45:47;;;;;;;8.68;4.75;;;13.20;87.10;;;;;;5077873;28;20064;-65
2023/10/27 03:48:14;;;;;;;9.90;5.22;;;13.20;87.10;;;;;;5065755;28;20059;-65
2023/10/27 03:50:39;;;;;;;6.93;5.07;;;13.30;87.10;;;;;;5064556;28;20086;-65
2023/10/27 03:53:05;;;;;;;10.27;5.60;;;13.30;87.00;;;;;;5063317;28;20025;-65
2023/10/27 03:55:31;;;;;;;6.40;4.13;;;13.20;87.10;;;;;;5070435;28;20033;-65
2023/10/27 03:58:13;;;;;;;5.38;4.00;;;13.20;87.10;;;;;;5065077;28;20472;-65
2023/10/27 04:00:38;;;;;;;9.40;3.97;;;13.20;87.10;;;;;;5065271;28;20025;-65
2023/10/27 04:03:09;;;;;;;6.78;4.00;;;13.20;87.20;;;;;;5063102;28;20484;-65
2023/10/27 04:05:36;;;;;;;;;;;13.20;87.20;;;;;;5057717;28;20024;-62
2023/10/27 04:08:05;;;;;;;5.75;3.95;;;13.20;87.30;;;;;;5077295;28;20005;-62
2023/10/27 04:10:33;;;;;;;5.63;3.45;;;13.10;87.90;;;;;;5075267;28;20032;-65
2023/10/27 04:12:59;;;;;;;6.72;4.68;;;13.10;87.30;;;;;;5062719;28;20427;-64
2023/10/27 04:15:25;;;;;;;5.30;3.67;;;13.20;87.30;;;;;;5069385;28;20040;-64
2023/10/27 04:17:51;;;;;;;6.88;4.18;;;13.20;87.30;;;;;;5071074;28;20391;-65
2023/10/27 04:20:17;;;;;;;4.57;3.78;;;13.20;87.30;;;;;;5068750;28;20070;-66
2023/10/27 04:22:43;;;;;;;7.50;3.67;;;13.20;87.30;;;;;;5063190;28;20071;-65
2023/10/27 04:25:12;;;;;;;7.03;3.70;;;13.20;87.20;;;;;;5064404;28;20039;-65
2023/10/27 04:27:38;;;;;;;6.15;3.20;;;13.20;87.20;;;;;;5065423;28;20443;-65
2023/10/27 04:30:07;;;;;;;5.68;3.97;;;13.20;87.20;;;;;;5064341;28;20035;-65
2023/10/27 04:32:35;;;;;;;7.95;4.35;;;13.20;87.20;;;;;;5064760;28;20063;-65
2023/10/27 04:35:01;;;;;;;4.47;3.13;;;13.20;87.20;;;;;;5068587;28;20036;-64
2023/10/27 04:37:30;;;;;;;7.45;4.15;;;13.20;87.20;;;;;;5065412;28;20461;-65
2023/10/27 04:39:56;;;;;;;4.75;3.33;;;13.20;87.20;;;;;;5070912;28;20115;-65
2023/10/27 04:42:22;;;;;;;6.85;3.83;;;13.20;87.20;;;;;;5090184;28;20123;-64
2023/10/27 04:44:48;;;;;;;8.90;3.38;;;13.20;87.30;;;;;;5060238;28;20039;-64
2023/10/27 04:47:14;;;;;;;6.97;3.00;;;13.20;87.30;;;;;;5058268;28;20024;-64
2023/10/27 04:49:39;;;;;;;2.78;2.08;;;13.20;87.30;;;;;;5065949;28;20064;-64
2023/10/27 04:52:08;;;;;;;4.10;2.75;;;13.20;87.20;;;;;;5063723;28;20063;-64
2023/10/27 04:54:36;;;;;;;4.32;2.45;;;13.20;87.30;;;;;;5065911;28;20111;-62
2023/10/27 04:57:05;;;;;;;5.47;2.90;;;13.20;87.30;;;;;;5073003;28;20031;-62
2023/10/27 04:59:32;;;;;;;4.45;2.97;;;13.20;87.40;;;;;;5071531;28;20048;-61
2023/10/27 05:01:58;;;;;;;4.75;2.47;;;13.20;87.40;;;;;;5066924;28;20051;-61
2023/10/27 05:04:25;;;;;;;5.95;2.67;;;13.20;87.40;;;;;;5069866;28;20032;-62
2023/10/27 05:06:50;;;;;;;4.10;2.50;;;13.20;87.40;;;;;;5071854;28;20028;-65
2023/10/27 05:09:18;;;;;;;8.30;2.97;;;13.10;87.40;;;;;;5069038;28;20498;-65
2023/10/27 05:11:45;;;;;;;5.60;3.10;;;13.20;87.40;;;;;;5068187;28;20384;-62
2023/10/27 05:14:12;;;;;;;4.13;2.55;;;13.20;87.40;;;;;;5059026;28;20097;-62
2023/10/27 05:16:38;;;;;;;3.80;2.42;;;13.20;87.40;;;;;;5055917;28;21660;-63
2023/10/27 05:19:04;;;;;;;3.30;2.03;;;13.20;87.40;;;;;;5070844;28;20021;-62
2023/10/27 05:21:30;;;;;;;6.30;2.50;;;13.20;87.50;;;;;;5063367;28;20033;-65
2023/10/27 05:23:57;;;;;;;5.35;2.55;;;13.20;87.50;;;;;;5054915;28;20033;-65
2023/10/27 05:26:24;;;;;;;3.63;2.22;;;13.20;87.50;;;;;;5065188;28;20036;-65
2023/10/27 05:28:50;;;;;;;3.15;2.22;;;13.20;87.50;;;;;;5067594;28;20059;-65
2023/10/27 05:31:16;;;;;;;5.63;2.55;;;13.20;87.40;;;;;;5060816;28;20494;-65
2023/10/27 05:33:42;;;;;;;3.13;2.10;;;13.20;87.50;;;;;;5069607;28;20095;-65
2023/10/27 05:36:08;;;;;;;2.58;1.73;;;13.10;87.50;;;;;;5066234;28;20131;-62
2023/10/27 05:38:33;;;;;;;5.70;2.50;;;13.10;87.50;;;;;;5066651;28;20025;-62
2023/10/27 05:40:59;;;;;;;2.58;1.75;;;13.10;87.40;;;;;;5068427;28;20030;-62
2023/10/27 05:43:25;;;;;;;5.30;2.20;;;13.10;87.40;;;;;;5075220;28;20066;-62
2023/10/27 05:45:51;;;;;;;3.00;1.70;;;13.10;87.40;;;;;;5066189;28;20029;-62
2023/10/27 05:48:17;;;;;;;4.72;2.30;;;13.20;87.40;;;;;;5068938;28;20564;-62
2023/10/27 05:50:42;;;;;;;2.42;1.40;;;13.20;87.40;;;;;;5062114;28;20036;-61
2023/10/27 05:53:08;;;;;;;3.80;2.28;;;13.20;87.30;;;;;;5072300;28;20422;-61
2023/10/27 05:55:34;;;;;;;3.38;2.67;;;13.20;87.30;;;;;;5062319;28;20033;-62
2023/10/27 05:57:59;;;;;;;3.53;1.80;;;13.20;87.30;;;;;;5071551;28;20020;-61
2023/10/27 06:00:25;;;;;;;3.65;2.00;;;13.20;87.30;;;;;;5069720;28;20114;-61
2023/10/27 06:02:52;;;;;;;3.70;2.20;;;13.20;87.30;;;;;;5068873;28;20037;-61
2023/10/27 06:05:20;;;;;;;5.50;2.33;;;13.20;87.90;;;;;;5073639;28;20082;-64
2023/10/27 06:07:46;;;;;;;2.95;1.95;;;13.10;87.30;;;;;;5079953;28;20036;-62
2023/10/27 06:10:12;;;;;;;3.15;1.75;;;13.10;87.30;;;;;;5073247;28;20473;-62
2023/10/27 06:12:37;;;;;;;3.55;2.58;;;13.10;87.30;;;;;;5079426;28;20055;-61
2023/10/27 06:15:03;;;;;;;4.97;2.25;;;13.10;87.30;;;;;;5071387;28;20052;-61
2023/10/27 06:17:29;;;;;;;3.22;2.13;;;13.10;87.40;;;;;;5065674;28;20490;-62
2023/10/27 06:19:55;;;;;;;3.03;1.83;;;13.10;87.40;;;;;;5069173;28;20044;-62
2023/10/27 06:22:21;;;;;;;3.53;2.05;;;13.20;87.50;;;;;;5071783;28;20491;-62
2023/10/27 06:24:47;;;;;;;3.35;2.03;;;13.10;87.50;;;;;;5070349;28;20025;-61
2023/10/27 06:27:13;;;;;;;2.05;1.73;;;13.10;87.50;;;;;;5078485;28;20486;-61
2023/10/27 06:29:39;;;;;;;2.67;1.77;;;13.10;87.50;;;;;;5075513;28;20051;-63
2023/10/27 06:32:05;;;;;;;4.43;2.10;;;13.10;87.50;;;;;;5068858;28;20036;-62
2023/10/27 06:34:31;;;;;;;3.05;1.77;;;13.10;87.50;;;;;;5072516;28;20364;-62
2023/10/27 06:36:58;;;;;;;2.72;2.22;;;13.10;87.50;;;;;;5072947;28;20024;-63
2023/10/27 06:39:24;;;;;;;3.38;1.70;;;13.20;87.60;;;;;;5065934;28;20029;-63
2023/10/27 06:41:50;;;;;;;2.15;1.20;;;13.10;87.50;;;;;;5071758;28;20082;-63
2023/10/27 06:44:17;;;;;;;4.55;1.92;;;13.20;87.50;;;;;;5070564;28;20498;-63
2023/10/27 06:46:44;;;;;;;2.10;1.55;;;13.10;87.40;;;;;;5074231;28;20112;-62
2023/10/27 06:49:11;;;;;;;2.92;2.25;;;13.20;87.50;;;;;;5049327;28;20407;-63
2023/10/27 06:51:37;;;;;;;2.55;1.52;;;13.10;87.50;;;;;;5072174;28;20521;-63
2023/10/27 06:54:03;;;;;;;2.20;1.92;;;13.20;87.50;;;;;;5067574;28;20040;-64
2023/10/27 06:56:28;;;;;;;3.25;1.42;;;13.10;87.50;;;;;;5066543;28;20055;-63
2023/10/27 06:58:54;;;;;;;2.30;1.70;;;13.10;87.50;;;;;;5070566;28;20491;-65
2023/10/27 07:01:20;;;;;;;1.80;1.33;;;13.20;87.50;;;;;;5071649;28;20107;-65
2023/10/27 07:03:45;;;;;;;2.30;1.63;;;13.10;87.50;;;;;;5069455;28;20028;-61
2023/10/27 07:06:12;;;;;;;2.38;1.58;;;13.20;87.50;;;;;;5068556;28;20044;-64
2023/10/27 07:08:38;;;;;;;3.42;1.42;;;13.10;87.50;;;;;;5072441;28;20039;-64
2023/10/27 07:11:03;;;;;;;1.88;1.30;;;13.20;87.50;;;;;;5077784;28;20111;-63
2023/10/27 07:13:30;;;;;;;2.75;2.25;;;13.10;87.50;;;;;;5070455;28;20546;-65
2023/10/27 07:15:56;;;;;;;2.97;1.15;;;13.20;87.50;;;;;;5077190;28;20105;-65
2023/10/27 07:18:22;;;;;;;1.92;1.75;;;13.20;87.50;;;;;;5067851;28;20052;-66
2023/10/27 07:20:48;;;;;;;1.50;1.40;;;13.20;87.50;;;;;;5074340;28;21247;-65
2023/10/27 07:23:18;;;;;;;3.97;1.27;;;13.20;87.60;;;;;;5060251;28;20498;-65
2023/10/27 07:25:43;;;;;;;3.17;1.60;;;13.20;87.50;;;;;;5063894;28;20036;-66
2023/10/27 07:28:09;;;;;;;2.35;1.15;;;13.20;87.50;;;;;;5062565;28;20035;-62
2023/10/27 07:30:35;;;;;;;2.25;1.23;;;13.20;87.40;;;;;;5063968;28;20040;-63
2023/10/27 07:33:01;;;;;;;2.33;1.80;;;13.30;87.50;;;;;;5066517;28;20081;-63
2023/10/27 07:35:26;;;;;;;1.58;1.20;;;13.20;87.40;;;;;;5063726;28;20040;-63
2023/10/27 07:37:53;;;;;;;2.10;1.40;;;13.20;87.50;;;;;;5061751;28;20067;-62
2023/10/27 07:40:19;;;;;;;2.40;1.70;;;13.20;87.40;;;;;;5051344;28;20016;-63
2023/10/27 07:42:45;;;;;;;2.97;1.42;;;13.20;87.40;;;;;;5069842;28;20076;-63
2023/10/27 07:45:10;;;;;;;3.00;1.63;;;13.20;87.40;;;;;;5069914;28;20020;-63
2023/10/27 07:47:36;;;;;;;1.98;1.63;;;13.20;87.40;;;;;;5068079;28;20036;-62
2023/10/27 07:50:05;;;;;;;1.67;1.40;;;13.30;87.40;;;;;;5063133;28;20486;-63
2023/10/27 07:52:32;;;;;;;2.17;1.90;;;13.30;87.40;;;;;;5058644;28;20039;-63
2023/10/27 07:54:59;;;;;;;2.83;1.90;;;13.30;87.40;;;;;;5065362;28;20403;-63
2023/10/27 07:57:26;;;;;;;2.97;1.98;;;13.30;87.40;;;;;;5060412;28;20029;-62
2023/10/27 07:59:51;;;;;;;2.80;2.05;;;13.30;87.40;;;;;;5051062;28;20764;-62
2023/10/27 08:02:17;;;;;;;3.55;1.90;;;13.20;87.40;;;;;;5058933;28;20032;-63
2023/10/27 08:04:43;;;;;;;3.92;2.47;;;13.20;87.30;;;;;;5063011;28;20040;-63
2023/10/27 08:07:08;;;;;;;4.68;3.15;;;13.20;87.40;;;;;;5064368;28;20111;-66
2023/10/27 08:09:34;;;;;;;2.63;1.83;;;13.20;87.40;;;;;;5059596;28;20020;-64
2023/10/27 08:12:00;;;;;;;2.97;2.50;;;13.20;87.90;;;;;;5067772;28;20036;-66
2023/10/27 08:14:26;;;;;;;5.05;2.60;;;13.30;87.40;;;;;;5056800;28;20543;-67
2023/10/27 08:16:51;;;;;;;4.43;2.25;;;13.30;87.50;;;;;;5064126;28;20136;-67
2023/10/27 08:19:17;;;;;;;3.40;2.85;;;13.30;87.40;;;;;;5063728;28;20464;-66
2023/10/27 08:21:46;;;;;;;3.30;2.75;;;13.30;87.30;;;;;;5058859;28;20108;-66
2023/10/27 08:24:13;;;;;;;4.25;2.65;;;13.30;87.30;;;;;;5076325;28;20024;-64
2023/10/27 08:26:38;;;;;;;7.18;3.15;;;13.30;87.30;;;;;;5070674;28;20249;-63
2023/10/27 08:29:04;;;;;;;3.42;2.15;;;13.30;87.30;;;;;;5086229;28;20032;-66
2023/10/27 08:31:30;;;;;;;3.42;2.25;;;13.30;87.30;;;;;;5070260;28;20056;-66
2023/10/27 08:33:59;;;;;;;4.45;2.35;;;13.30;87.30;;;;;;5062474;28;20424;-63
2023/10/27 08:36:25;;;;;;;3.60;2.17;;;13.40;87.30;;;;;;5052154;28;20395;-63
2023/10/27 08:38:55;;;;;;;3.67;2.55;;;13.40;87.30;;;;;;5070098;28;20029;-63
2023/10/27 08:41:22;;;;;;;3.35;2.30;;;13.40;87.30;;;;;;5075254;28;20028;-63
2023/10/27 08:43:49;;;;;;;3.60;2.22;;;13.40;87.30;;;;;;5065263;28;20501;-64
2023/10/27 08:46:15;;;;;;;2.17;1.95;;;13.40;87.30;;;;;;5083231;28;20119;-64
2023/10/27 08:48:42;;;;;;;3.63;2.33;;;13.40;87.30;;;;;;5071149;28;20136;-64
2023/10/27 08:51:09;;;;;;;3.88;2.20;;;13.40;87.30;;;;;;5062763;28;20028;-63
2023/10/27 08:53:48;;;;;;;3.30;2.15;;;13.40;87.40;;;;;;5067292;28;20035;-63
2023/10/27 08:56:15;;;;;;;2.13;1.83;;;13.40;87.30;;;;;;5059514;28;20099;-63
2023/10/27 08:58:48;;;;;;;3.30;2.30;;;13.40;87.40;;;;;;5052426;28;20024;-63
2023/10/27 09:01:14;;;;;;;3.80;2.53;;;13.40;87.30;;;;;;5068158;28;20119;-63
2023/10/27 09:03:40;;;;;;;3.08;1.95;;;13.40;87.30;;;;;;5055897;28;20047;-63
2023/10/27 09:06:07;;;;;;;3.55;2.25;;;13.40;87.40;;;;;;5058320;28;20024;-63
2023/10/27 09:08:34;;;;;;;2.70;2.30;;;13.40;87.40;;;;;;5057100;28;20162;-63
2023/10/27 09:11:00;;;;;;;3.33;1.77;;;13.40;87.50;;;;;;5057975;28;20122;-63
2023/10/27 09:13:25;;;;;;;2.75;2.10;;;13.40;87.50;;;;;;5066577;28;20036;-63
2023/10/27 09:15:51;;;;;;;1.88;1.70;;;13.40;87.50;;;;;;5069692;28;20120;-63
2023/10/27 09:18:33;;;;;;;3.17;2.08;;;13.40;87.40;;;;;;5067888;28;20052;-63
2023/10/27 09:20:58;;;;;;;3.17;2.17;;;13.50;87.40;;;;;;5062206;28;20063;-63
2023/10/27 09:23:25;;;;;;;3.63;2.03;;;13.50;87.40;;;;;;5079776;28;20314;-64
2023/10/27 09:25:56;;;;;;;2.80;1.90;;;13.50;87.30;;;;;;5070614;28;20039;-63
2023/10/27 09:28:28;;;;;;;2.67;2.38;;;13.50;87.30;;;;;;5068288;28;20029;-63
2023/10/27 09:30:54;;;;;;;4.35;1.67;;;13.50;87.30;;;;;;5060580;28;20034;-63
2023/10/27 09:33:26;;;;;;;3.03;1.85;;;13.50;87.40;;;;;;5069994;28;20387;-63
2023/10/27 09:35:53;;;;;;;3.10;1.83;;;13.60;87.40;;;;;;5067344;28;20028;-64
2023/10/27 09:38:20;;;;;;;2.33;1.88;;;13.60;87.40;;;;;;5064958;28;20033;-63
2023/10/27 09:40:46;;;;;;;3.25;1.98;;;13.60;87.40;;;;;;5073951;28;20128;-63
2023/10/27 09:43:17;;;;;;;2.20;1.95;;;13.60;87.30;;;;;;5059849;28;20081;-63
2023/10/27 09:45:53;;;;;;;2.05;1.33;;;13.70;87.30;;;;;;5063290;28;20463;-63
2023/10/27 09:48:27;;;;;;;3.97;1.88;;;13.70;87.30;;;;;;5060470;28;20510;-63
2023/10/27 09:50:59;;;;;;;2.67;1.90;;;13.70;87.30;;;;;;5069626;28;20368;-63
2023/10/27 09:53:28;;;;;;;1.83;1.50;;;13.70;87.40;;;;;;5076033;28;20036;-67
2023/10/27 09:55:56;;;;;;;3.38;2.00;;;13.70;87.40;;;;;;5064399;28;20047;-67
2023/10/27 09:58:23;;;;;;;3.55;2.75;;;13.70;87.40;;;;;;5081350;28;20032;-66
2023/10/27 10:00:48;;;;;;;2.13;1.40;;;13.70;87.40;;;;;;5060503;28;20045;-66
2023/10/27 10:03:15;;;;;;;3.63;1.88;;;13.70;87.40;;;;;;5068048;28;20035;-67
2023/10/27 10:06:17;;;;;;;2.05;1.60;;;13.70;87.30;;;;;;5064591;28;20040;-67
2023/10/27 10:09:09;;;;;;;2.78;1.85;;;13.80;87.30;;;;;;5061927;28;20033;-66
2023/10/27 10:11:47;;;;;;;3.15;1.67;;;13.70;87.30;;;;;;5057770;28;20082;-67
2023/10/27 10:14:42;;;;;;;1.67;1.50;;;13.70;87.40;;;;;;5064544;28;20706;-66
2023/10/27 10:17:08;;;;;;;2.42;1.95;;;13.70;87.30;;;;;;5059676;28;20170;-66
2023/10/27 10:19:50;;;;;;;3.78;2.30;;;13.70;87.40;;;;;;5073293;28;20036;-66
2023/10/27 10:22:38;;;;;;;2.60;1.70;;;13.70;87.40;;;;;;5067356;28;20024;-67
2023/10/27 10:25:18;;;;;;;1.67;1.30;;;13.70;87.30;;;;;;5062453;28;20039;-66
2023/10/27 10:28:09;;;;;;;2.13;1.67;;;13.80;87.40;;;;;;5062723;28;20085;-66
2023/10/27 10:30:35;;;;;;;3.38;2.13;;;13.80;87.30;;;;;;5064719;28;20032;-63
2023/10/27 10:33:22;;;;;;;1.70;1.60;;;13.80;87.40;;;;;;5064994;28;20093;-64
2023/10/27 10:35:49;;;;;;;2.58;1.45;;;13.80;87.30;;;;;;5065298;28;20337;-66
2023/10/27 10:38:24;;;;;;;2.45;1.67;;;13.80;87.30;;;;;;5060661;28;20028;-63
2023/10/27 10:40:51;;;;;;;1.55;1.30;;;13.80;87.20;;;;;;5063977;28;20441;-67
2023/10/27 10:43:24;;;;;;;2.95;1.88;;;13.80;87.20;;;;;;5072400;28;20031;-66
2023/10/27 10:45:59;;;;;;;2.33;1.95;;;13.80;87.20;;;;;;5057376;28;20037;-66
2023/10/27 10:48:27;;;;;;;2.10;1.63;;;13.80;87.30;;;;;;5068615;28;20488;-66
2023/10/27 10:50:56;;;;;;;2.78;2.00;;;13.80;87.30;;;;;;5085353;28;20063;-66
2023/10/27 10:53:24;;;;;;;3.47;1.52;;;13.90;87.30;;;;;;5088456;28;20032;-67
2023/10/27 10:55:51;;;;;;;3.95;1.83;;;13.90;87.30;;;;;;5070627;28;20031;-67
2023/10/27 10:58:34;;;;;;;2.50;1.35;;;14.00;87.40;;;;;;5065301;28;20083;-66
2023/10/27 11:01:01;;;;;;;1.73;1.25;;;14.00;87.20;;;;;;5069670;28;20486;-67
2023/10/27 11:03:31;;;;;;;2.13;1.20;;;14.00;87.20;;;;;;5059724;28;20456;-67
2023/10/27 11:06:05;;;;;;;1.35;1.25;;;14.10;87.20;;;;;;5068050;28;20505;-66
2023/10/27 11:08:37;;;;;;;2.15;1.65;;;14.10;87.10;;;;;;5068114;28;20103;-66
2023/10/27 11:11:04;;;;;;;2.15;1.52;;;14.10;87.00;;;;;;5070329;28;20482;-66
2023/10/27 11:13:33;;;;;;;2.13;1.23;;;14.20;87.00;;;;;;5058065;28;20024;-66
2023/10/27 11:16:00;;;;;;;1.65;1.33;;;14.20;87.00;;;;;;5071061;28;20055;-66
2023/10/27 11:18:33;;;;;;;2.05;1.60;;;14.20;87.00;;;;;;5063370;28;20047;-67
2023/10/27 11:20:59;;;;;;;3.30;2.03;;;14.20;87.00;;;;;;5067104;28;20032;-66
2023/10/27 11:23:28;;;;;;;2.55;1.92;;;14.20;87.00;;;;;;5083082;28;20063;-67
2023/10/27 11:26:02;;;;;;;1.92;1.75;;;14.20;87.00;;;;;;5072332;28;20491;-66
2023/10/27 11:28:28;;;;;;;2.60;1.45;;;14.20;86.90;;;;;;5067892;28;20025;-66
2023/10/27 11:31:03;;;;;;;5.57;1.65;;;14.20;86.90;;;;;;5068302;28;20496;-66
2023/10/27 11:33:29;;;;;;;2.13;1.60;;;14.20;86.90;;;;;;5064327;28;20020;-66
2023/10/27 11:35:57;;;;;;;3.05;2.13;;;14.20;87.00;;;;;;5059228;28;20032;-66
2023/10/27 11:38:23;;;;;;;3.70;2.53;;;14.20;87.00;;;;;;5061308;28;20043;-65
2023/10/27 11:40:50;;;;;;;3.55;1.88;;;14.20;87.00;;;;;;5070823;28;20086;-66
2023/10/27 11:43:17;;;;;;;3.58;2.40;;;14.20;87.00;;;;;;5071397;28;20455;-66
2023/10/27 11:45:44;;;;;;;2.97;1.60;;;14.20;87.10;;;;;;5066064;28;20107;-65
2023/10/27 11:48:10;;;;;;;1.55;1.30;;;14.20;87.00;;;;;;5060576;28;20033;-66
2023/10/27 11:50:36;;;;;;;1.27;1.17;;;14.30;87.10;;;;;;5053989;28;20032;-66
2023/10/27 11:53:02;;;;;;;1.98;1.38;;;14.30;87.10;;;;;;5074041;28;20036;-65
2023/10/27 11:55:27;;;;;;;2.40;1.98;;;14.30;87.10;;;;;;5064162;28;20037;-66
2023/10/27 11:57:53;;;;;;;1.60;1.13;;;14.30;87.00;;;;;;5070469;28;20028;-65
2023/10/27 12:00:19;;;;;;;2.17;1.40;;;14.40;87.00;;;;;;5060431;28;20412;-66
2023/10/27 12:02:44;;;;;;;2.78;1.85;;;14.30;87.00;;;;;;5056980;28;20579;-65
2023/10/27 12:05:10;;;;;;;3.13;1.73;;;14.40;87.10;;;;;;5069097;28;20047;-66
2023/10/27 12:07:35;;;;;;;3.03;2.28;;;14.40;87.00;;;;;;5072942;28;20028;-66
2023/10/27 12:10:01;;;;;;;2.72;1.98;;;14.40;87.10;;;;;;5071519;28;20400;-65
2023/10/27 12:12:28;;;;;;;3.15;2.00;;;14.30;87.00;;;;;;5058550;28;20508;-66
2023/10/27 12:14:54;;;;;;;3.05;2.28;;;14.30;87.10;;;;;;5067600;28;20098;-62
2023/10/27 12:17:20;;;;;;;2.80;1.73;;;14.30;87.20;;;;;;5072540;28;20020;-62
2023/10/27 12:19:45;;;;;;;3.53;2.15;;;14.30;87.20;;;;;;5057970;28;20017;-62
2023/10/27 12:22:11;;;;;;;5.82;1.98;;;14.30;87.20;;;;;;5070819;28;20025;-62
2023/10/27 12:24:37;;;;;;;2.47;1.63;;;14.30;87.20;;;;;;5059517;28;20082;-62
2023/10/27 12:27:04;;;;;;;2.80;1.45;;;14.30;87.10;;;;;;5065499;28;20562;-63
2023/10/27 12:29:30;;;;;;;1.75;1.23;;;14.30;87.10;;;;;;5059900;28;20033;-63
2023/10/27 12:31:55;;;;;;;4.40;2.08;;;14.30;87.10;;;;;;5063367;28;20035;-63
2023/10/27 12:34:21;;;;;;;3.88;1.55;;;14.40;87.00;;;;;;5061564;28;20052;-62
2023/10/27 12:36:47;;;;;;;1.55;1.10;;;14.30;87.00;;;;;;5068753;28;20028;-63
2023/10/27 12:39:12;;;;;;;1.50;1.20;;;14.30;87.10;;;;;;5055726;28;20660;-63
2023/10/27 12:41:38;;;;;;;1.30;1.20;;;14.30;87.10;;;;;;5058777;28;20074;-62
2023/10/27 12:44:04;;;;;;;1.83;1.17;;;14.30;87.10;;;;;;5064082;28;20060;-63
2023/10/27 12:46:29;;;;;;;2.00;1.23;;;14.30;87.20;;;;;;5047555;28;20031;-63